Time;durP1;ratioP1;P1;durP2;ratioP2;P2;SDS_P1;SDS_P2;PMS_P1;PMS_P2;Temp;Humidity;BMP_temperature;BMP_pressure;BME280_temperature;BME280_humidity;BME280_pressure;Samples;Min_cycle;Max_cycle;Signal;HPM_P1;HPM_P2
2022/06/02 00:01:01;;;;;;;1.10;1.00;;;;;;;;;;5082431;28;20040;-79
2022/06/02 00:03:39;;;;;;;1.38;0.80;;;;;;;;;;5083148;28;20016;-79
2022/06/02 00:06:21;;;;;;;1.48;0.95;;;;;;;;;;5096349;28;20039;-79
2022/06/02 00:09:11;;;;;;;1.23;1.08;;;;;;;;;;5090386;28;20532;-80
2022/06/02 00:12:09;;;;;;;2.78;1.25;;;;;;;;;;5078767;28;20084;-79
2022/06/02 00:14:58;;;;;;;1.20;1.10;;;;;;;;;;5037452;28;20043;-80
2022/06/02 00:17:34;;;;;;;2.08;1.30;;;;;;;;;;5064671;28;20122;-79
2022/06/02 00:20:04;;;;;;;2.67;1.40;;;;;;;;;;5060629;28;20029;-78
2022/06/02 00:23:17;;;;;;;0.88;0.88;;;;;;;;;;5096316;28;20020;-77
2022/06/02 00:26:19;;;;;;;0.98;0.98;;;;;;;;;;5018300;28;20239;-80
2022/06/02 00:29:13;;;;;;;3.13;1.25;;;;;;;;;;5110840;28;20016;-78
2022/06/02 00:31:57;;;;;;;1.10;1.00;;;;;;;;;;5098130;28;20057;-80
2022/06/02 00:35:15;;;;;;;1.92;1.10;;;;;;;;;;5099254;28;20003;-80
2022/06/02 00:38:09;;;;;;;1.13;1.00;;;;;;;;;;5034560;28;20150;-79
2022/06/02 00:40:36;;;;;;;2.22;1.13;;;;;;;;;;5098041;28;20110;-79
2022/06/02 00:43:13;;;;;;;1.52;1.13;;;;;;;;;;5117390;28;20012;-78
2022/06/02 00:45:43;;;;;;;0.85;0.85;;;;;;;;;;5102923;28;20024;-80
2022/06/02 00:48:12;;;;;;;1.15;0.93;;;;;;;;;;5099046;28;20020;-80
2022/06/02 00:51:00;;;;;;;3.55;1.17;;;;;;;;;;5099489;28;20103;-80
2022/06/02 00:57:30;;;;;;;1.08;1.00;;;;;;;;;;5077141;28;20497;-80
2022/06/02 00:59:31;;;;;;;1.20;1.13;;;;;;;;;;5080646;28;19939;-79
2022/06/02 01:01:56;;;;;;;3.50;1.25;;;;;;;;;;5079847;28;20059;-81
2022/06/02 01:04:22;;;;;;;2.60;1.20;;;;;;;;;;5079338;28;20109;-81
2022/06/02 01:07:04;;;;;;;3.05;1.23;;;;;;;;;;5097623;28;20436;-81
2022/06/02 01:10:09;;;;;;;2.45;1.40;;;;;;;;;;5080001;28;20040;-81
2022/06/02 01:12:51;;;;;;;0.73;0.73;;;;;;;;;;5098666;28;20084;-80
2022/06/02 01:15:16;;;;;;;;;;;;;;;;;;5098676;28;20062;-78
2022/06/02 01:18:07;;;;;;;1.00;0.90;;;;;;;;;;5096620;28;19908;-79
2022/06/02 01:21:14;;;;;;;1.33;0.88;;;;;;;;;;5099124;28;20153;-79
2022/06/02 01:24:02;;;;;;;1.23;1.05;;;;;;;;;;5078177;28;20016;-79
2022/06/02 01:26:48;;;;;;;0.98;0.80;;;;;;;;;;5070716;28;20089;-80
2022/06/02 01:29:31;;;;;;;1.55;1.00;;;;;;;;;;5076739;28;20017;-81
2022/06/02 01:32:29;;;;;;;2.38;1.10;;;;;;;;;;5076790;28;20093;-81
2022/06/02 01:35:19;;;;;;;3.90;1.10;;;;;;;;;;5050945;28;20052;-80
2022/06/02 01:38:03;;;;;;;1.35;1.05;;;;;;;;;;5073875;28;20028;-80
2022/06/02 01:40:45;;;;;;;1.23;1.10;;;;;;;;;;5074498;28;20016;-78
2022/06/02 01:43:29;;;;;;;1.50;1.03;;;;;;;;;;5073074;28;20108;-80
2022/06/02 01:46:03;;;;;;;12.20;1.73;;;;;;;;;;5073087;28;20028;-80
2022/06/02 01:48:50;;;;;;;1.38;1.20;;;;;;;;;;5073130;28;20478;-79
2022/06/02 01:51:45;;;;;;;3.10;1.30;;;;;;;;;;5072555;28;20085;-78
2022/06/02 01:54:49;;;;;;;3.13;1.27;;;;;;;;;;5067721;28;20039;-80
2022/06/02 01:57:52;;;;;;;1.90;1.30;;;;;;;;;;5072786;28;20055;-80
2022/06/02 02:00:22;;;;;;;2.15;1.40;;;;;;;;;;5073079;28;20625;-80
2022/06/02 02:02:57;;;;;;;5.63;1.20;;;;;;;;;;5073691;28;20020;-80
2022/06/02 02:05:35;;;;;;;1.73;1.10;;;;;;;;;;5083534;28;20024;-80
2022/06/02 02:08:10;;;;;;;1.30;1.20;;;;;;;;;;5094559;28;20716;-78
2022/06/02 02:10:36;;;;;;;3.40;1.58;;;;;;;;;;5077756;28;20026;-79
2022/06/02 02:13:25;;;;;;;1.60;1.30;;;;;;;;;;5073487;28;20099;-78
2022/06/02 02:16:15;;;;;;;1.67;1.27;;;;;;;;;;5073696;28;20024;-78
2022/06/02 02:18:49;;;;;;;3.20;1.30;;;;;;;;;;5073582;28;20029;-79
2022/06/02 02:21:46;;;;;;;3.53;1.40;;;;;;;;;;5071726;28;20025;-79
2022/06/02 02:24:35;;;;;;;3.45;1.80;;;;;;;;;;5089887;28;20110;-80
2022/06/02 02:27:10;;;;;;;1.17;1.08;;;;;;;;;;5094701;28;20558;-79
2022/06/02 02:29:51;;;;;;;4.90;1.20;;;;;;;;;;5094219;28;20032;-80
2022/06/02 02:32:36;;;;;;;1.67;1.30;;;;;;;;;;5094699;28;20558;-79
2022/06/02 02:35:33;;;;;;;3.53;1.40;;;;;;;;;;5080364;28;20028;-79
2022/06/02 02:38:31;;;;;;;1.30;1.20;;;;;;;;;;5094478;28;20608;-79
2022/06/02 02:41:00;;;;;;;1.63;1.30;;;;;;;;;;5093864;28;20036;-79
2022/06/02 02:43:33;;;;;;;3.47;1.45;;;;;;;;;;5094883;28;20073;-79
2022/06/02 02:46:10;;;;;;;2.28;1.13;;;;;;;;;;5094399;28;20478;-79
2022/06/02 02:49:03;;;;;;;4.45;1.50;;;;;;;;;;5094151;28;20028;-79
2022/06/02 02:51:38;;;;;;;2.17;1.00;;;;;;;;;;5093828;28;20115;-79
2022/06/02 02:54:27;;;;;;;2.75;1.30;;;;;;;;;;5072514;28;20111;-79
2022/06/02 02:57:22;;;;;;;1.45;1.08;;;;;;;;;;5073965;28;20024;-79
2022/06/02 02:59:57;;;;;;;1.60;1.27;;;;;;;;;;5063420;28;20046;-78
2022/06/02 03:02:29;;;;;;;4.47;1.30;;;;;;;;;;5075548;28;20376;-79
2022/06/02 03:04:58;;;;;;;3.38;1.40;;;;;;;;;;5081042;28;20024;-78
2022/06/02 03:07:24;;;;;;;1.80;1.30;;;;;;;;;;5074302;28;20431;-79
2022/06/02 03:10:11;;;;;;;3.13;1.60;;;;;;;;;;5078805;28;20470;-79
2022/06/02 03:12:45;;;;;;;3.88;1.20;;;;;;;;;;5093873;28;20416;-79
2022/06/02 03:15:11;;;;;;;1.95;1.13;;;;;;;;;;5094574;28;20493;-79
2022/06/02 03:17:55;;;;;;;1.52;1.35;;;;;;;;;;5093836;28;20024;-79
2022/06/02 03:20:36;;;;;;;4.75;1.33;;;;;;;;;;5094166;28;20024;-79
2022/06/02 03:23:20;;;;;;;5.10;1.70;;;;;;;;;;5075321;28;20024;-79
2022/06/02 03:25:55;;;;;;;3.10;1.23;;;;;;;;;;5073438;28;20016;-79
2022/06/02 03:28:43;;;;;;;2.00;1.42;;;;;;;;;;5073906;28;20482;-79
2022/06/02 03:31:27;;;;;;;1.55;1.35;;;;;;;;;;5073956;28;20021;-79
2022/06/02 03:34:07;;;;;;;8.85;1.65;;;;;;;;;;5075927;28;20051;-80
2022/06/02 03:36:50;;;;;;;3.15;1.38;;;;;;;;;;5075763;28;20051;-80
2022/06/02 03:39:33;;;;;;;5.40;1.45;;;;;;;;;;5076897;28;20096;-79
2022/06/02 03:42:22;;;;;;;2.40;1.15;;;;;;;;;;5076816;28;20089;-79
2022/06/02 03:45:27;;;;;;;4.43;1.67;;;;;;;;;;5076966;28;20106;-79
2022/06/02 03:48:34;;;;;;;1.77;1.40;;;;;;;;;;5076316;28;20082;-79
2022/06/02 03:51:17;;;;;;;2.33;1.20;;;;;;;;;;5072915;28;20410;-79
2022/06/02 03:53:46;;;;;;;3.72;1.70;;;;;;;;;;5079942;28;20066;-79
2022/06/02 03:56:38;;;;;;;5.60;1.60;;;;;;;;;;5096514;28;20050;-79
2022/06/02 03:59:12;;;;;;;2.80;1.45;;;;;;;;;;5078871;28;20023;-79
2022/06/02 04:01:41;;;;;;;2.83;1.42;;;;;;;;;;5096055;28;20028;-79
2022/06/02 04:04:38;;;;;;;4.82;2.00;;;;;;;;;;5096759;28;20369;-78
2022/06/02 04:07:22;;;;;;;1.48;1.33;;;;;;;;;;5085000;28;20020;-79
2022/06/02 04:10:06;;;;;;;2.50;1.40;;;;;;;;;;5084852;28;20016;-78
2022/06/02 04:15:41;;;;;;;4.07;1.63;;;;;;;;;;5071650;28;20399;-79
2022/06/02 04:18:32;;;;;;;2.15;1.10;;;;;;;;;;5070699;28;20063;-79
2022/06/02 04:21:21;;;;;;;3.60;1.40;;;;;;;;;;5075910;28;20016;-79
2022/06/02 04:24:04;;;;;;;3.13;1.60;;;;;;;;;;5068514;28;20114;-79
2022/06/02 04:26:35;;;;;;;3.25;1.60;;;;;;;;;;5055514;28;20025;-79
2022/06/02 04:29:25;;;;;;;1.65;1.55;;;;;;;;;;5056203;28;20074;-79
2022/06/02 04:32:49;;;;;;;3.83;1.33;;;;;;;;;;5079579;28;20036;-78
2022/06/02 04:35:48;;;;;;;3.03;1.58;;;;;;;;;;5064816;28;20056;-79
2022/06/02 04:38:44;;;;;;;3.15;1.48;;;;;;;;;;5074407;28;20044;-78
2022/06/02 04:41:09;;;;;;;4.45;1.67;;;;;;;;;;5075927;28;20028;-79
2022/06/02 04:43:59;;;;;;;5.18;1.83;;;;;;;;;;5075277;28;20043;-78
2022/06/02 04:46:47;;;;;;;5.47;1.63;;;;;;;;;;5075997;28;20098;-78
2022/06/02 04:49:41;;;;;;;4.82;1.63;;;;;;;;;;5043643;28;20115;-79
2022/06/02 04:52:38;;;;;;;8.00;1.70;;;;;;;;;;5075092;28;20042;-79
2022/06/02 04:55:29;;;;;;;2.00;1.63;;;;;;;;;;5055079;28;20550;-79
2022/06/02 04:58:07;;;;;;;5.35;1.50;;;;;;;;;;5076210;28;20036;-79
2022/06/02 05:00:41;;;;;;;2.58;1.70;;;;;;;;;;5096415;28;20035;-78
2022/06/02 05:03:23;;;;;;;2.00;1.50;;;;;;;;;;5094690;28;20020;-79
2022/06/02 05:05:55;;;;;;;4.78;1.70;;;;;;;;;;5069293;28;20073;-78
2022/06/02 05:08:46;;;;;;;2.40;1.70;;;;;;;;;;5084206;28;20044;-80
2022/06/02 05:11:23;;;;;;;2.00;1.50;;;;;;;;;;5094639;28;20032;-78
2022/06/02 05:14:07;;;;;;;2.40;1.60;;;;;;;;;;5056418;28;20071;-79
2022/06/02 05:16:56;;;;;;;3.72;1.92;;;;;;;;;;5056166;28;20033;-79
2022/06/02 05:19:34;;;;;;;4.50;2.05;;;;;;;;;;5056701;28;20029;-79
2022/06/02 05:22:23;;;;;;;4.07;1.98;;;;;;;;;;5073434;28;20028;-79
2022/06/02 05:25:20;;;;;;;4.20;1.48;;;;;;;;;;5083528;28;20017;-83
2022/06/02 05:28:00;;;;;;;1.60;1.50;;;;;;;;;;5076721;28;20489;-79
2022/06/02 05:30:33;;;;;;;1.90;1.50;;;;;;;;;;5076085;28;20048;-80
2022/06/02 05:33:23;;;;;;;3.00;1.63;;;;;;;;;;5075495;28;20016;-79
2022/06/02 05:36:14;;;;;;;3.53;1.73;;;;;;;;;;5068858;28;20450;-79
2022/06/02 05:38:59;;;;;;;1.60;1.50;;;;;;;;;;5075512;28;20067;-79
2022/06/02 05:42:01;;;;;;;2.55;1.60;;;;;;;;;;5075771;28;20040;-80
2022/06/02 05:44:45;;;;;;;3.45;1.55;;;;;;;;;;5076662;28;20025;-79
2022/06/02 05:47:19;;;;;;;7.57;1.45;;;;;;;;;;5074736;28;20029;-79
2022/06/02 05:50:06;;;;;;;2.45;1.58;;;;;;;;;;5075006;28;20382;-79
2022/06/02 05:53:06;;;;;;;1.92;1.60;;;;;;;;;;5085298;28;20028;-77
2022/06/02 05:56:10;;;;;;;3.60;1.40;;;;;;;;;;5094708;28;20020;-80
2022/06/02 05:59:09;;;;;;;3.85;1.48;;;;;;;;;;5077601;28;20114;-79
2022/06/02 06:01:53;;;;;;;2.67;1.60;;;;;;;;;;5095479;28;20059;-79
2022/06/02 06:04:50;;;;;;;4.80;1.55;;;;;;;;;;5087197;28;20475;-79
2022/06/02 06:08:05;;;;;;;3.70;1.58;;;;;;;;;;5095433;28;20034;-79
2022/06/02 06:10:43;;;;;;;4.57;1.70;;;;;;;;;;5072681;28;20040;-79
2022/06/02 06:13:51;;;;;;;8.05;1.77;;;;;;;;;;5095748;28;20032;-80
2022/06/02 06:16:30;;;;;;;6.22;2.13;;;;;;;;;;5063590;28;20025;-79
2022/06/02 06:19:08;;;;;;;5.63;1.30;;;;;;;;;;5056007;28;20025;-79
2022/06/02 06:21:53;;;;;;;5.18;1.50;;;;;;;;;;5059549;28;20395;-79
2022/06/02 06:24:52;;;;;;;2.58;1.42;;;;;;;;;;5037152;28;20095;-80
2022/06/02 06:27:17;;;;;;;6.35;2.00;;;;;;;;;;5075790;28;20027;-79
2022/06/02 06:29:50;;;;;;;5.00;1.60;;;;;;;;;;5075954;28;20024;-79
2022/06/02 06:32:19;;;;;;;1.30;1.20;;;;;;;;;;5075198;28;20356;-80
2022/06/02 06:34:53;;;;;;;8.68;1.60;;;;;;;;;;5066553;28;20394;-80
2022/06/02 06:37:28;;;;;;;4.18;1.63;;;;;;;;;;5074799;28;20025;-79
2022/06/02 06:39:53;;;;;;;2.17;1.48;;;;;;;;;;5060089;28;20138;-79
2022/06/02 06:42:42;;;;;;;9.05;1.75;;;;;;;;;;5067614;28;20059;-81
2022/06/02 06:45:25;;;;;;;6.35;1.45;;;;;;;;;;5059468;28;20094;-79
2022/06/02 06:48:14;;;;;;;3.22;1.40;;;;;;;;;;5067296;28;20430;-79
2022/06/02 06:51:01;;;;;;;3.70;1.55;;;;;;;;;;5086024;28;20069;-79
2022/06/02 06:53:53;;;;;;;7.72;1.77;;;;;;;;;;5077414;28;20027;-80
2022/06/02 06:56:46;;;;;;;1.55;1.45;;;;;;;;;;5074577;28;20020;-79
2022/06/02 06:59:23;;;;;;;7.05;1.80;;;;;;;;;;5083256;28;20043;-80
2022/06/02 07:02:12;;;;;;;5.78;1.73;;;;;;;;;;5074594;28;20632;-79
2022/06/02 07:05:01;;;;;;;1.65;1.35;;;;;;;;;;5094220;28;20032;-79
2022/06/02 07:07:41;;;;;;;4.72;1.50;;;;;;;;;;5096440;28;20031;-80
2022/06/02 07:10:12;;;;;;;2.53;1.38;;;;;;;;;;5102174;28;20016;-78
2022/06/02 07:13:01;;;;;;;4.57;1.70;;;;;;;;;;5082992;28;20028;-80
2022/06/02 07:15:53;;;;;;;1.50;1.40;;;;;;;;;;5083621;28;20079;-83
2022/06/02 07:18:23;;;;;;;6.93;1.50;;;;;;;;;;5096413;28;20028;-79
2022/06/02 07:20:59;;;;;;;3.35;1.40;;;;;;;;;;5078939;28;20020;-80
2022/06/02 07:23:56;;;;;;;5.10;1.65;;;;;;;;;;5074427;28;20028;-81
2022/06/02 07:26:36;;;;;;;3.72;1.48;;;;;;;;;;5077615;28;20096;-80
2022/06/02 07:29:30;;;;;;;10.35;1.55;;;;;;;;;;5078364;28;20128;-80
2022/06/02 07:32:17;;;;;;;6.15;1.65;;;;;;;;;;5080491;28;20063;-81
2022/06/02 07:35:13;;;;;;;5.57;2.03;;;;;;;;;;5054317;28;20051;-81
2022/06/02 07:37:57;;;;;;;3.63;1.45;;;;;;;;;;5079494;28;20034;-81
2022/06/02 07:40:22;;;;;;;5.20;1.55;;;;;;;;;;5061647;28;20442;-80
2022/06/02 07:43:06;;;;;;;3.55;1.60;;;;;;;;;;5089738;28;20035;-82
2022/06/02 07:45:50;;;;;;;5.40;1.50;;;;;;;;;;5078297;28;20031;-82
2022/06/02 07:48:48;;;;;;;3.67;1.25;;;;;;;;;;5095060;28;20031;-81
2022/06/02 07:51:40;;;;;;;5.22;1.85;;;;;;;;;;5073672;28;20137;-81
2022/06/02 07:54:28;;;;;;;2.63;1.42;;;;;;;;;;5079497;28;20017;-83
2022/06/02 07:57:38;;;;;;;2.55;1.60;;;;;;;;;;5066033;28;20475;-80
2022/06/02 08:00:18;;;;;;;2.55;1.33;;;;;;;;;;5019867;28;20562;-80
2022/06/02 08:03:16;;;;;;;10.27;2.45;;;;;;;;;;5077997;28;20032;-80
2022/06/02 08:06:28;;;;;;;3.72;1.33;;;;;;;;;;5031133;28;20036;-82
2022/06/02 08:09:12;;;;;;;;;;;;;;;;;;5008612;28;20065;-82
2022/06/02 08:11:51;;;;;;;11.27;1.60;;;;;;;;;;5087302;28;19908;-82
2022/06/02 08:14:27;;;;;;;3.10;1.50;;;;;;;;;;5101184;28;20024;-79
2022/06/02 08:17:22;;;;;;;8.77;1.52;;;;;;;;;;5077139;28;20029;-82
2022/06/02 08:20:19;;;;;;;13.30;1.70;;;;;;;;;;5060422;28;20055;-81
2022/06/02 08:22:50;;;;;;;4.93;1.58;;;;;;;;;;5033463;28;20052;-81
2022/06/02 08:25:22;;;;;;;6.57;1.63;;;;;;;;;;5077786;28;20024;-81
2022/06/02 08:28:17;;;;;;;1.35;1.30;;;;;;;;;;5079928;28;20107;-81
2022/06/02 08:30:48;;;;;;;2.47;1.13;;;;;;;;;;5078573;28;20020;-82
2022/06/02 08:33:35;;;;;;;1.77;1.20;;;;;;;;;;5080021;28;20509;-80
2022/06/02 08:36:06;;;;;;;5.28;1.13;;;;;;;;;;5082646;28;20104;-82
2022/06/02 08:38:41;;;;;;;;;;;;;;;;;;5067529;28;20044;-82
2022/06/02 08:41:37;;;;;;;5.00;1.73;;;;;;;;;;5066051;28;19908;-82
2022/06/02 08:44:24;;;;;;;5.90;1.33;;;;;;;;;;5094323;28;20049;-83
2022/06/02 08:47:22;;;;;;;3.05;1.30;;;;;;;;;;5100332;28;20028;-80
2022/06/02 08:50:10;;;;;;;3.50;1.38;;;;;;;;;;5099527;28;20080;-82
2022/06/02 08:53:00;;;;;;;4.65;1.75;;;;;;;;;;5083162;28;20491;-83
2022/06/02 08:55:41;;;;;;;2.70;1.10;;;;;;;;;;5079430;28;20056;-82
2022/06/02 08:58:29;;;;;;;2.95;1.48;;;;;;;;;;5079587;28;20031;-82
2022/06/02 09:01:01;;;;;;;12.50;2.00;;;;;;;;;;5041357;28;20268;-81
2022/06/02 09:04:04;;;;;;;1.40;1.10;;;;;;;;;;5074135;28;20146;-83
2022/06/02 09:06:38;;;;;;;3.60;1.05;;;;;;;;;;5079082;28;20021;-79
2022/06/02 09:09:15;;;;;;;2.08;1.48;;;;;;;;;;5079846;28;20028;-83
2022/06/02 09:12:19;;;;;;;4.30;1.20;;;;;;;;;;5069565;28;20410;-82
2022/06/02 09:15:16;;;;;;;2.15;1.30;;;;;;;;;;4996955;28;20039;-81
2022/06/02 09:18:05;;;;;;;7.22;1.35;;;;;;;;;;5070995;28;20040;-83
2022/06/02 09:21:06;;;;;;;3.28;1.40;;;;;;;;;;5077787;28;20028;-82
2022/06/02 09:24:02;;;;;;;2.10;1.42;;;;;;;;;;5077008;28;20032;-82
2022/06/02 09:26:29;;;;;;;2.28;1.17;;;;;;;;;;5078871;28;20084;-82
2022/06/02 09:29:24;;;;;;;6.35;1.35;;;;;;;;;;5077811;28;20416;-83
2022/06/02 09:32:01;;;;;;;1.30;1.23;;;;;;;;;;5070161;28;20328;-82
2022/06/02 09:34:53;;;;;;;9.70;1.70;;;;;;;;;;5069047;28;20073;-82
2022/06/02 09:37:33;;;;;;;2.30;1.17;;;;;;;;;;5078603;28;20032;-83
2022/06/02 09:40:45;;;;;;;1.38;1.27;;;;;;;;;;5084270;28;20029;-81
2022/06/02 09:43:19;;;;;;;5.28;1.30;;;;;;;;;;5054636;28;20044;-81
2022/06/02 09:45:54;;;;;;;3.38;1.10;;;;;;;;;;5041925;28;20074;-81
2022/06/02 09:48:51;;;;;;;2.15;1.40;;;;;;;;;;5059023;28;20068;-82
2022/06/02 09:51:38;;;;;;;1.35;1.25;;;;;;;;;;5059371;28;20024;-81
2022/06/02 09:54:43;;;;;;;2.17;1.20;;;;;;;;;;5075699;28;20384;-82
2022/06/02 09:57:56;;;;;;;1.55;1.40;;;;;;;;;;5075483;28;20100;-83
2022/06/02 10:00:35;;;;;;;2.22;1.33;;;;;;;;;;5059425;28;20467;-83
2022/06/02 10:03:38;;;;;;;3.10;1.13;;;;;;;;;;5071518;28;20032;-82
2022/06/02 10:06:19;;;;;;;5.93;1.10;;;;;;;;;;5063812;28;20108;-85
2022/06/02 10:12:58;;;;;;;4.28;1.20;;;;;;;;;;5065169;28;20434;-85
2022/06/02 10:15:42;;;;;;;3.63;1.80;;;;;;;;;;5057213;28;20025;-84
2022/06/02 10:18:39;;;;;;;2.65;1.60;;;;;;;;;;5075393;28;20046;-85
2022/06/02 10:21:11;;;;;;;3.25;1.30;;;;;;;;;;5071448;28;20037;-82
2022/06/02 10:23:55;;;;;;;2.95;1.35;;;;;;;;;;5074001;28;20027;-83
2022/06/02 10:26:48;;;;;;;2.10;1.35;;;;;;;;;;5074954;28;20021;-82
2022/06/02 10:29:35;;;;;;;7.68;1.58;;;;;;;;;;5075411;28;20024;-82
2022/06/02 10:32:10;;;;;;;1.45;1.35;;;;;;;;;;5072780;28;20044;-83
2022/06/02 10:34:35;;;;;;;1.65;1.30;;;;;;;;;;5085398;28;20033;-81
2022/06/02 10:37:25;;;;;;;5.50;1.35;;;;;;;;;;5093848;28;20032;-83
2022/06/02 10:40:06;;;;;;;24.98;1.85;;;;;;;;;;5072020;28;20027;-83
2022/06/02 10:42:54;;;;;;;3.60;1.27;;;;;;;;;;5072065;28;20023;-83
2022/06/02 10:45:38;;;;;;;3.95;1.20;;;;;;;;;;5069858;28;20368;-83
2022/06/02 10:48:28;;;;;;;2.80;1.60;;;;;;;;;;5073575;28;20020;-83
2022/06/02 10:51:31;;;;;;;8.00;1.10;;;;;;;;;;5073535;28;20025;-83
2022/06/02 10:54:40;;;;;;;2.53;1.23;;;;;;;;;;5068324;28;20028;-82
2022/06/02 10:57:56;;;;;;;1.73;1.30;;;;;;;;;;5068673;28;20029;-82
2022/06/02 11:00:37;;;;;;;2.05;1.10;;;;;;;;;;5051699;28;20059;-82
2022/06/02 11:03:08;;;;;;;2.45;1.33;;;;;;;;;;5049682;28;20111;-83
2022/06/02 11:05:59;;;;;;;2.70;1.00;;;;;;;;;;5061255;28;20033;-81
2022/06/02 11:09:16;;;;;;;7.90;1.40;;;;;;;;;;5055771;28;20029;-82
2022/06/02 11:12:17;;;;;;;2.75;1.48;;;;;;;;;;5068345;28;20420;-81
2022/06/02 11:15:04;;;;;;;1.77;1.35;;;;;;;;;;5051725;28;20049;-83
2022/06/02 11:17:54;;;;;;;1.85;1.30;;;;;;;;;;5060423;28;20021;-83
2022/06/02 11:20:31;;;;;;;18.38;2.08;;;;;;;;;;5060507;28;20028;-84
2022/06/02 11:23:15;;;;;;;2.75;1.50;;;;;;;;;;5061300;28;20101;-82
2022/06/02 11:25:52;;;;;;;4.40;1.33;;;;;;;;;;5080422;28;20047;-80
2022/06/02 11:28:39;;;;;;;1.50;1.30;;;;;;;;;;5080206;28;20505;-82
2022/06/02 11:31:43;;;;;;;2.05;1.27;;;;;;;;;;5080226;28;20020;-82
2022/06/02 11:34:33;;;;;;;3.13;1.00;;;;;;;;;;5070203;28;20063;-80
2022/06/02 11:37:19;;;;;;;4.82;1.50;;;;;;;;;;5056748;28;20106;-84
2022/06/02 11:40:13;;;;;;;5.05;1.85;;;;;;;;;;5064458;28;20162;-83
2022/06/02 11:42:56;;;;;;;3.25;1.27;;;;;;;;;;5079902;28;20475;-82
2022/06/02 11:46:01;;;;;;;3.78;1.15;;;;;;;;;;5080518;28;20028;-82
2022/06/02 11:49:02;;;;;;;3.63;1.40;;;;;;;;;;5080044;28;20029;-83
2022/06/02 11:52:11;;;;;;;1.77;1.15;;;;;;;;;;5072157;28;20017;-83
2022/06/02 11:55:21;;;;;;;2.40;1.20;;;;;;;;;;5067662;28;20039;-82
2022/06/02 11:58:14;;;;;;;26.35;2.22;;;;;;;;;;5068132;28;20021;-82
2022/06/02 12:01:15;;;;;;;2.95;1.20;;;;;;;;;;5062103;28;20031;-84
2022/06/02 12:04:29;;;;;;;2.35;1.27;;;;;;;;;;5062918;28;20033;-84
2022/06/02 12:07:33;;;;;;;8.30;1.30;;;;;;;;;;5055287;28;20483;-82
2022/06/02 12:10:28;;;;;;;4.15;1.23;;;;;;;;;;5061412;28;20029;-82
2022/06/02 12:13:12;;;;;;;2.25;1.20;;;;;;;;;;5041658;28;20095;-84
2022/06/02 12:15:57;;;;;;;10.25;1.30;;;;;;;;;;5054301;28;20029;-82
2022/06/02 12:19:08;;;;;;;3.70;1.10;;;;;;;;;;5058916;28;20483;-84
2022/06/02 12:22:17;;;;;;;1.58;1.23;;;;;;;;;;5057065;28;20027;-84
2022/06/02 12:25:05;;;;;;;1.55;1.10;;;;;;;;;;5056550;28;20037;-84
2022/06/02 12:28:12;;;;;;;3.67;1.15;;;;;;;;;;5059092;28;20112;-83
2022/06/02 12:31:25;;;;;;;2.67;1.13;;;;;;;;;;5058591;28;20215;-81
2022/06/02 12:34:28;;;;;;;3.22;1.40;;;;;;;;;;5056098;28;20029;-84
2022/06/02 12:37:28;;;;;;;3.17;1.13;;;;;;;;;;5038462;28;20025;-83
2022/06/02 12:40:28;;;;;;;2.72;0.90;;;;;;;;;;5062152;28;20115;-83
2022/06/02 12:43:05;;;;;;;2.58;1.15;;;;;;;;;;5038174;28;20110;-83
2022/06/02 12:45:46;;;;;;;2.20;1.10;;;;;;;;;;5039215;28;20025;-83
2022/06/02 12:48:18;;;;;;;1.55;1.20;;;;;;;;;;5061652;28;20059;-83
2022/06/02 12:51:02;;;;;;;2.53;1.05;;;;;;;;;;5064758;28;20052;-83
2022/06/02 12:53:52;;;;;;;4.30;1.17;;;;;;;;;;5058172;28;20064;-79
2022/06/02 12:56:34;;;;;;;4.43;1.40;;;;;;;;;;5053326;28;20029;-80
2022/06/02 12:59:23;;;;;;;1.33;1.10;;;;;;;;;;5059823;28;20491;-83
2022/06/02 13:02:27;;;;;;;1.33;1.25;;;;;;;;;;5042941;28;20053;-82
2022/06/02 13:04:58;;;;;;;3.40;1.27;;;;;;;;;;5060893;28;20033;-83
2022/06/02 13:07:55;;;;;;;1.00;1.00;;;;;;;;;;5059918;28;20479;-81
2022/06/02 13:10:40;;;;;;;3.38;1.30;;;;;;;;;;5060235;28;20036;-84
2022/06/02 13:13:32;;;;;;;1.42;0.98;;;;;;;;;;5027946;28;20050;-83
2022/06/02 13:16:13;;;;;;;15.57;1.73;;;;;;;;;;5053721;28;20025;-84
2022/06/02 13:19:03;;;;;;;3.83;1.23;;;;;;;;;;5060436;28;20029;-83
2022/06/02 13:21:35;;;;;;;6.53;1.48;;;;;;;;;;5057702;28;20092;-81
2022/06/02 13:24:10;;;;;;;4.07;1.33;;;;;;;;;;5059791;28;20471;-84
2022/06/02 13:27:04;;;;;;;3.55;1.23;;;;;;;;;;5060429;28;20025;-84
2022/06/02 13:30:10;;;;;;;2.63;1.20;;;;;;;;;;5061384;28;20032;-82
2022/06/02 13:33:00;;;;;;;2.10;1.20;;;;;;;;;;5062944;28;20055;-80
2022/06/02 13:35:55;;;;;;;7.82;1.30;;;;;;;;;;5067208;28;20021;-80
2022/06/02 13:38:33;;;;;;;3.58;1.17;;;;;;;;;;5070770;28;20043;-79
2022/06/02 13:41:04;;;;;;;1.95;1.13;;;;;;;;;;5084534;28;20027;-79
2022/06/02 13:44:02;;;;;;;7.20;1.08;;;;;;;;;;5082985;28;20028;-78
2022/06/02 13:46:46;;;;;;;3.70;1.10;;;;;;;;;;5084636;28;20394;-80
2022/06/02 13:49:30;;;;;;;2.80;1.30;;;;;;;;;;5084753;28;20027;-79
2022/06/02 13:52:07;;;;;;;4.20;1.33;;;;;;;;;;5085271;28;20091;-79
2022/06/02 13:58:18;;;;;;;2.97;1.10;;;;;;;;;;5083087;28;20066;-78
2022/06/02 14:00:52;;;;;;;1.45;1.02;;;;;;;;;;5071007;28;20495;-81
2022/06/02 14:03:41;;;;;;;2.33;1.10;;;;;;;;;;5071632;28;20067;-80
2022/06/02 14:06:11;;;;;;;2.63;1.48;;;;;;;;;;5061490;28;20025;-80
2022/06/02 14:09:02;;;;;;;5.47;1.25;;;;;;;;;;5060432;28;20059;-82
2022/06/02 14:12:05;;;;;;;1.52;1.30;;;;;;;;;;5047013;28;20535;-82
2022/06/02 14:14:45;;;;;;;2.17;1.20;;;;;;;;;;5039740;28;20097;-80
2022/06/02 14:17:38;;;;;;;1.80;1.15;;;;;;;;;;5040105;28;20028;-82
2022/06/02 14:20:12;;;;;;;2.40;1.20;;;;;;;;;;5030525;28;20068;-80
2022/06/02 14:23:09;;;;;;;2.92;0.80;;;;;;;;;;5039579;28;20039;-81
2022/06/02 14:25:56;;;;;;;1.90;1.23;;;;;;;;;;5060202;28;20051;-80
2022/06/02 14:28:35;;;;;;;5.93;1.10;;;;;;;;;;5052931;28;20029;-81
2022/06/02 14:31:07;;;;;;;2.55;1.10;;;;;;;;;;5057573;28;20039;-81
2022/06/02 14:33:43;;;;;;;1.95;1.02;;;;;;;;;;5060280;28;20017;-80
2022/06/02 14:36:29;;;;;;;1.73;1.00;;;;;;;;;;5039075;28;20131;-80
2022/06/02 14:38:57;;;;;;;3.30;1.10;;;;;;;;;;5072594;28;20043;-82
2022/06/02 14:41:33;;;;;;;3.65;1.10;;;;;;;;;;5082281;28;20465;-80
2022/06/02 14:44:06;;;;;;;2.20;1.00;;;;;;;;;;5069422;28;20048;-80
2022/06/02 14:46:50;;;;;;;1.65;1.00;;;;;;;;;;5059471;28;20034;-81
2022/06/02 14:49:46;;;;;;;3.15;1.15;;;;;;;;;;5066752;28;20074;-80
2022/06/02 14:52:33;;;;;;;1.63;1.40;;;;;;;;;;5065463;28;20087;-81
2022/06/02 14:55:11;;;;;;;2.28;1.10;;;;;;;;;;5062877;28;20100;-83
2022/06/02 14:57:45;;;;;;;1.75;0.77;;;;;;;;;;5052288;28;20049;-81
2022/06/02 15:00:34;;;;;;;2.50;1.30;;;;;;;;;;5055532;28;20047;-81
2022/06/02 15:03:17;;;;;;;2.85;1.20;;;;;;;;;;5070038;28;20019;-80
2022/06/02 15:05:45;;;;;;;1.33;1.08;;;;;;;;;;5066355;28;20033;-80
2022/06/02 15:08:32;;;;;;;1.73;1.17;;;;;;;;;;5071251;28;20017;-79
2022/06/02 15:11:22;;;;;;;8.75;1.60;;;;;;;;;;5070446;28;20025;-79
2022/06/02 15:14:07;;;;;;;3.13;1.80;;;;;;;;;;5068727;28;20021;-81
2022/06/02 15:16:59;;;;;;;2.83;1.27;;;;;;;;;;5062594;28;20021;-80
2022/06/02 15:19:24;;;;;;;4.28;1.20;;;;;;;;;;5051520;28;20021;-80
2022/06/02 15:22:27;;;;;;;5.18;1.35;;;;;;;;;;5059824;28;20029;-80
2022/06/02 15:25:12;;;;;;;2.15;0.85;;;;;;;;;;5055754;28;20017;-81
2022/06/02 15:27:53;;;;;;;2.75;1.10;;;;;;;;;;5075943;28;20044;-80
2022/06/02 15:30:33;;;;;;;1.70;1.20;;;;;;;;;;5064311;28;20024;-80
2022/06/02 15:33:42;;;;;;;5.25;1.13;;;;;;;;;;5071068;28;20013;-80
2022/06/02 15:36:36;;;;;;;6.57;1.65;;;;;;;;;;5061932;28;20029;-81
2022/06/02 15:39:24;;;;;;;3.05;1.25;;;;;;;;;;5052202;28;20029;-80
2022/06/02 15:42:04;;;;;;;6.43;1.02;;;;;;;;;;5043730;28;20024;-80
2022/06/02 15:45:02;;;;;;;6.50;1.35;;;;;;;;;;5048509;28;20048;-80
2022/06/02 15:47:38;;;;;;;3.75;1.50;;;;;;;;;;5056734;28;20028;-79
2022/06/02 15:50:41;;;;;;;3.42;1.40;;;;;;;;;;5067088;28;20037;-79
2022/06/02 15:53:41;;;;;;;1.60;1.35;;;;;;;;;;5043182;28;20041;-81
2022/06/02 15:56:06;;;;;;;3.38;1.10;;;;;;;;;;5052055;28;20029;-79
2022/06/02 15:59:00;;;;;;;4.20;1.13;;;;;;;;;;5061311;28;20064;-78
2022/06/02 16:01:50;;;;;;;4.15;1.42;;;;;;;;;;5080706;28;20028;-81
2022/06/02 16:04:40;;;;;;;5.55;1.15;;;;;;;;;;5064293;28;20028;-82
2022/06/02 16:07:44;;;;;;;6.35;1.40;;;;;;;;;;5044186;28;20033;-81
2022/06/02 16:13:38;;;;;;;2.47;1.15;;;;;;;;;;5006775;28;20061;-80
2022/06/02 16:16:34;;;;;;;4.03;1.10;;;;;;;;;;5063095;28;20071;-79
2022/06/02 16:19:37;;;;;;;2.70;1.40;;;;;;;;;;5062951;28;20020;-80
2022/06/02 16:22:21;;;;;;;3.40;1.50;;;;;;;;;;5068636;28;20016;-81
2022/06/02 16:25:42;;;;;;;4.32;1.10;;;;;;;;;;5071896;28;20029;-79
2022/06/02 16:28:35;;;;;;;11.23;1.33;;;;;;;;;;5041092;28;20037;-79
2022/06/02 16:31:27;;;;;;;6.35;1.40;;;;;;;;;;5057221;28;20270;-79
2022/06/02 16:34:12;;;;;;;1.35;1.20;;;;;;;;;;5062916;28;20028;-80
2022/06/02 16:36:46;;;;;;;1.48;1.00;;;;;;;;;;5076038;28;20024;-80
2022/06/02 16:39:16;;;;;;;1.98;1.05;;;;;;;;;;5069488;28;20552;-79
2022/06/02 16:42:04;;;;;;;5.75;1.10;;;;;;;;;;5059582;28;20634;-79
2022/06/02 16:44:48;;;;;;;2.83;1.23;;;;;;;;;;5069633;28;20036;-79
2022/06/02 16:47:32;;;;;;;4.00;1.35;;;;;;;;;;5055757;28;20100;-79
2022/06/02 16:50:28;;;;;;;5.90;1.30;;;;;;;;;;5055904;28;20024;-80
2022/06/02 16:53:52;;;;;;;4.00;1.00;;;;;;;;;;5059862;28;20050;-79
2022/06/02 16:55:59;;;;;;;2.58;1.13;;;;;;;;;;5075857;28;20086;-79